createdAt,value
2018-11-02T00:01:19.959Z,7.00
2018-11-02T00:03:47.581Z,7.00
2018-11-02T00:06:15.230Z,7.00
2018-11-02T00:08:57.760Z,6.90
2018-11-02T00:11:25.865Z,6.90
2018-11-02T00:13:53.421Z,6.90
2018-11-02T00:16:21.705Z,6.90
2018-11-02T00:18:49.294Z,6.90
2018-11-02T00:21:17.181Z,6.90
2018-11-02T00:23:44.796Z,6.80
2018-11-02T00:26:12.453Z,6.80
2018-11-02T00:28:40.043Z,6.80
2018-11-02T00:31:07.626Z,6.80
2018-11-02T00:33:35.245Z,6.80
2018-11-02T00:36:02.833Z,6.70
2018-11-02T00:38:30.410Z,6.70
2018-11-02T00:40:58.033Z,6.70
2018-11-02T00:43:25.583Z,6.70
2018-11-02T00:45:53.286Z,6.60
2018-11-02T00:48:20.836Z,6.60
2018-11-02T00:50:48.394Z,6.60
2018-11-02T00:53:16.713Z,6.70
2018-11-02T00:55:44.225Z,6.70
2018-11-02T00:58:11.812Z,6.60
2018-11-02T01:00:39.754Z,6.60
2018-11-02T01:03:07.636Z,6.60
2018-11-02T01:05:35.236Z,6.60
2018-11-02T01:08:02.827Z,6.60
2018-11-02T01:10:30.371Z,6.60
2018-11-02T01:12:57.929Z,6.60
2018-11-02T01:15:26.294Z,6.60
2018-11-02T01:17:53.847Z,6.50
2018-11-02T01:20:21.421Z,6.60
2018-11-02T01:22:49.024Z,6.50
2018-11-02T01:25:16.576Z,6.50
2018-11-02T01:27:44.139Z,6.40
2018-11-02T01:30:11.665Z,6.40
2018-11-02T01:32:39.303Z,6.40
2018-11-02T01:35:07.534Z,6.30
2018-11-02T01:37:35.140Z,6.40
2018-11-02T01:40:02.728Z,6.30
2018-11-02T01:42:30.271Z,6.20
2018-11-02T01:44:57.801Z,6.20
2018-11-02T01:47:25.366Z,6.10
2018-11-02T01:49:52.953Z,6.10
2018-11-02T01:52:20.533Z,6.00
2018-11-02T01:54:48.108Z,6.00
2018-11-02T01:57:15.767Z,5.90
2018-11-02T01:59:43.382Z,5.90
2018-11-02T02:02:10.989Z,5.90
2018-11-02T02:04:38.567Z,5.80
2018-11-02T02:07:06.238Z,5.80
2018-11-02T02:09:33.856Z,5.80
2018-11-02T02:12:01.499Z,5.80
2018-11-02T02:14:29.131Z,5.80
2018-11-02T02:16:56.735Z,5.80
2018-11-02T02:19:24.387Z,5.80
2018-11-02T02:21:51.968Z,5.80
2018-11-02T02:24:19.527Z,5.80
2018-11-02T02:26:47.137Z,5.70
2018-11-02T02:29:14.786Z,5.70
2018-11-02T02:31:42.381Z,5.60
2018-11-02T02:34:09.954Z,5.60
2018-11-02T02:36:37.591Z,5.50
2018-11-02T02:39:06.622Z,5.50
2018-11-02T02:41:34.192Z,5.50
2018-11-02T02:44:01.806Z,5.40
2018-11-02T02:46:29.348Z,5.40
2018-11-02T02:48:56.897Z,5.40
2018-11-02T02:51:24.455Z,5.40
2018-11-02T02:53:52.700Z,5.30
2018-11-02T02:56:20.265Z,5.30
2018-11-02T02:58:47.903Z,5.20
2018-11-02T03:01:15.585Z,5.20
2018-11-02T03:03:43.213Z,5.20
2018-11-02T03:06:10.850Z,5.20
2018-11-02T03:08:38.460Z,5.20
2018-11-02T03:11:06.253Z,5.20
2018-11-02T03:13:33.652Z,5.20
2018-11-02T03:16:01.220Z,5.10
2018-11-02T03:18:28.912Z,5.10
2018-11-02T03:20:56.461Z,5.10
2018-11-02T03:23:24.074Z,5.10
2018-11-02T03:25:51.649Z,5.10
2018-11-02T03:28:20.219Z,5.10
2018-11-02T03:30:47.827Z,5.10
2018-11-02T03:33:15.384Z,5.10
2018-11-02T03:35:42.881Z,5.10
2018-11-02T03:38:10.450Z,5.00
2018-11-02T03:40:38.059Z,5.00
2018-11-02T03:43:05.696Z,5.00
2018-11-02T03:45:33.260Z,5.10
2018-11-02T03:48:00.869Z,5.10
2018-11-02T03:50:28.480Z,5.10
2018-11-02T03:52:56.157Z,5.00
2018-11-02T03:55:23.779Z,5.00
2018-11-02T03:57:51.314Z,5.00
2018-11-02T04:00:18.949Z,5.00
2018-11-02T04:02:46.604Z,5.00
2018-11-02T04:05:14.174Z,5.00
2018-11-02T04:07:41.740Z,5.00
2018-11-02T04:10:10.087Z,5.00
2018-11-02T04:12:37.629Z,5.00
2018-11-02T04:15:05.238Z,5.00
2018-11-02T04:17:32.784Z,5.10
2018-11-02T04:20:00.367Z,5.10
2018-11-02T04:22:27.982Z,5.10
2018-11-02T04:24:55.545Z,5.10
2018-11-02T04:27:23.174Z,5.10
2018-11-02T04:29:50.766Z,5.10
2018-11-02T04:32:18.935Z,5.10
2018-11-02T04:34:46.535Z,5.10
2018-11-02T04:37:14.004Z,5.10
2018-11-02T04:39:41.587Z,5.10
2018-11-02T04:42:09.226Z,5.10
2018-11-02T04:44:36.828Z,5.20
2018-11-02T04:47:04.852Z,5.20
2018-11-02T04:49:32.407Z,5.10
2018-11-02T04:52:00.016Z,5.10
2018-11-02T04:54:28.111Z,5.10
2018-11-02T04:56:55.720Z,5.10
2018-11-02T04:59:23.295Z,5.10
2018-11-02T05:01:50.863Z,5.10
2018-11-02T05:04:18.438Z,5.10
2018-11-02T05:06:46.078Z,5.10
2018-11-02T05:09:13.614Z,5.10
2018-11-02T05:11:42.005Z,5.10
2018-11-02T05:14:09.681Z,5.10
2018-11-02T05:16:37.288Z,5.10
2018-11-02T05:19:05.108Z,5.10
2018-11-02T05:21:32.689Z,5.10
2018-11-02T05:24:00.309Z,5.10
2018-11-02T05:26:27.917Z,5.10
2018-11-02T05:28:55.515Z,5.10
2018-11-02T05:31:23.081Z,5.20
2018-11-02T05:33:50.652Z,5.30
2018-11-02T05:36:18.319Z,5.30
2018-11-02T05:38:45.859Z,5.30
2018-11-02T05:41:13.477Z,5.40
2018-11-02T05:43:41.112Z,5.40
2018-11-02T05:46:08.640Z,5.40
2018-11-02T05:48:36.287Z,5.30
2018-11-02T05:51:04.215Z,5.40
2018-11-02T05:53:31.845Z,5.40
2018-11-02T05:55:59.462Z,5.40
2018-11-02T05:58:27.002Z,5.50
2018-11-02T06:00:54.579Z,5.50
2018-11-02T06:03:22.081Z,5.50
2018-11-02T06:05:49.690Z,5.50
2018-11-02T06:08:17.344Z,5.60
2018-11-02T06:10:44.885Z,5.60
2018-11-02T06:13:12.448Z,5.70
2018-11-02T06:15:40.099Z,5.70
2018-11-02T06:18:07.668Z,5.70
2018-11-02T06:20:35.759Z,5.70
2018-11-02T06:23:03.399Z,5.70
2018-11-02T06:25:30.964Z,5.80
2018-11-02T06:27:58.591Z,5.80
2018-11-02T06:30:26.219Z,5.90
2018-11-02T06:32:53.706Z,5.90
2018-11-02T06:35:21.263Z,5.90
2018-11-02T06:37:48.923Z,5.90
2018-11-02T06:40:16.520Z,6.00
2018-11-02T06:42:44.080Z,6.00
2018-11-02T06:45:11.744Z,6.00
2018-11-02T06:47:39.359Z,6.00
2018-11-02T06:50:07.042Z,6.00
2018-11-02T06:52:34.717Z,6.00
2018-11-02T06:55:02.312Z,6.10
2018-11-02T06:57:29.964Z,6.20
2018-11-02T06:59:57.770Z,6.20
2018-11-02T07:02:25.164Z,6.20
2018-11-02T07:04:52.725Z,6.20
2018-11-02T07:07:20.316Z,6.30
2018-11-02T07:09:47.817Z,6.30
2018-11-02T07:12:15.396Z,6.30
2018-11-02T07:14:42.980Z,6.30
2018-11-02T07:17:10.605Z,6.40
2018-11-02T07:19:38.318Z,6.40
2018-11-02T07:22:05.905Z,6.40
2018-11-02T07:24:33.717Z,6.50
2018-11-02T07:27:01.252Z,6.50
2018-11-02T07:29:28.856Z,6.50
2018-11-02T07:31:56.518Z,6.50
2018-11-02T07:34:24.199Z,6.60
2018-11-02T07:36:51.655Z,6.60
2018-11-02T07:39:19.226Z,6.60
2018-11-02T07:41:46.837Z,6.70
2018-11-02T07:44:14.408Z,6.70
2018-11-02T07:46:42.036Z,6.70
2018-11-02T07:49:09.585Z,6.70
2018-11-02T07:51:37.209Z,6.80
2018-11-02T07:54:05.248Z,6.80
2018-11-02T07:56:32.925Z,6.80
2018-11-02T07:59:00.438Z,6.90
2018-11-02T08:01:28.059Z,6.90
2018-11-02T08:03:55.694Z,6.90
2018-11-02T08:06:23.333Z,6.90
2018-11-02T08:08:51.035Z,7.00
2018-11-02T08:11:18.687Z,7.00
2018-11-02T08:13:46.222Z,7.10
2018-11-02T08:16:13.807Z,7.10
2018-11-02T08:18:41.494Z,7.20
2018-11-02T08:21:10.838Z,7.20
2018-11-02T08:23:38.416Z,7.20
2018-11-02T08:26:06.209Z,7.20
2018-11-02T08:28:33.807Z,7.30
2018-11-02T08:31:01.351Z,7.30
2018-11-02T08:33:28.896Z,7.30
2018-11-02T08:35:56.486Z,7.30
2018-11-02T08:38:24.041Z,7.40
2018-11-02T08:40:51.628Z,7.40
2018-11-02T08:43:19.177Z,7.40
2018-11-02T08:45:46.765Z,7.40
2018-11-02T08:48:14.349Z,7.50
2018-11-02T08:50:41.950Z,7.50
2018-11-02T08:53:09.646Z,7.50
2018-11-02T08:55:37.219Z,7.60
2018-11-02T08:58:04.840Z,7.60
2018-11-02T09:00:32.474Z,7.70
2018-11-02T09:03:00.109Z,7.80
2018-11-02T09:05:27.685Z,7.80
2018-11-02T09:07:55.260Z,7.90
2018-11-02T09:10:22.858Z,7.90
2018-11-02T09:12:50.453Z,8.00
2018-11-02T09:15:17.984Z,8.00
2018-11-02T09:17:45.553Z,8.10
2018-11-02T09:20:13.282Z,8.20
2018-11-02T09:22:40.908Z,8.20
2018-11-02T09:25:09.199Z,8.20
2018-11-02T09:27:36.853Z,8.30
2018-11-02T09:30:08.208Z,8.40
2018-11-02T09:32:35.821Z,8.40
2018-11-02T09:35:03.895Z,8.40
2018-11-02T09:37:31.552Z,8.50
2018-11-02T09:39:59.215Z,8.50
2018-11-02T09:42:26.771Z,8.60
2018-11-02T09:44:54.405Z,8.60
2018-11-02T09:47:21.995Z,8.60
2018-11-02T09:49:49.534Z,8.70
2018-11-02T09:52:17.141Z,8.70
2018-11-02T09:54:44.716Z,8.70
2018-11-02T09:57:12.307Z,8.80
2018-11-02T09:59:39.906Z,8.70
2018-11-02T10:02:07.711Z,8.80
2018-11-02T10:04:35.365Z,8.80
2018-11-02T10:07:02.996Z,8.80
2018-11-02T10:09:31.246Z,8.80
2018-11-02T10:11:59.001Z,8.80
2018-11-02T10:14:26.641Z,8.80
2018-11-02T10:16:54.308Z,8.90
2018-11-02T10:19:21.978Z,8.90
2018-11-02T10:21:49.651Z,8.90
2018-11-02T10:24:17.396Z,8.90
2018-11-02T10:26:45.137Z,8.90
2018-11-02T10:29:12.845Z,8.90
2018-11-02T10:31:40.686Z,8.90
2018-11-02T10:34:08.420Z,9.00
2018-11-02T10:36:37.767Z,9.00
2018-11-02T10:39:08.056Z,8.90
2018-11-02T10:41:38.688Z,8.90
2018-11-02T10:44:06.442Z,9.00
2018-11-02T10:46:34.528Z,9.00
2018-11-02T10:49:02.229Z,9.00
2018-11-02T10:51:29.857Z,9.00
2018-11-02T10:53:57.471Z,9.00
2018-11-02T10:56:25.189Z,9.00
2018-11-02T10:58:52.862Z,9.10
2018-11-02T11:01:26.223Z,9.10
2018-11-02T11:03:53.861Z,9.10
2018-11-02T11:06:21.463Z,9.20
2018-11-02T11:08:49.044Z,9.20
2018-11-02T11:11:16.652Z,9.20
2018-11-02T11:13:44.875Z,9.20
2018-11-02T11:16:12.182Z,9.30
2018-11-02T11:18:39.786Z,9.40
2018-11-02T11:21:08.237Z,9.40
2018-11-02T11:23:35.910Z,9.40
2018-11-02T11:26:03.646Z,9.50
2018-11-02T11:28:31.338Z,9.50
2018-11-02T11:30:58.910Z,9.50
2018-11-02T11:33:26.521Z,9.60
2018-11-02T11:35:54.161Z,9.60
2018-11-02T11:38:21.769Z,9.70
2018-11-02T11:40:49.362Z,9.70
2018-11-02T11:43:17.008Z,9.70
2018-11-02T11:45:44.614Z,9.80
2018-11-02T11:48:12.357Z,9.90
2018-11-02T11:50:39.908Z,9.90
2018-11-02T11:53:07.456Z,10.00
2018-11-02T11:55:35.075Z,10.00
2018-11-02T11:58:02.651Z,10.10
2018-11-02T12:00:30.284Z,10.10
2018-11-02T12:02:57.887Z,10.20
2018-11-02T12:05:25.552Z,10.20
2018-11-02T12:07:53.208Z,10.30
2018-11-02T12:10:22.381Z,10.30
2018-11-02T12:12:51.016Z,10.40
2018-11-02T12:15:20.015Z,10.40
2018-11-02T12:17:48.141Z,10.50
2018-11-02T12:20:21.278Z,10.50
2018-11-02T12:22:50.005Z,10.60
2018-11-02T12:25:17.639Z,10.60
2018-11-02T12:27:45.269Z,10.60
2018-11-02T12:30:14.006Z,10.70
2018-11-02T12:32:41.665Z,10.70
2018-11-02T12:35:10.865Z,10.70
2018-11-02T12:37:38.682Z,10.70
2018-11-02T12:40:08.182Z,10.70
2018-11-02T12:42:36.238Z,10.70
2018-11-02T12:45:04.749Z,10.70
2018-11-02T12:47:32.377Z,10.80
2018-11-02T12:49:59.960Z,10.80
2018-11-02T12:52:27.514Z,10.80
2018-11-02T12:54:55.122Z,10.80
2018-11-02T12:57:22.761Z,10.80
2018-11-02T12:59:50.453Z,10.80
2018-11-02T13:02:18.060Z,10.80
2018-11-02T13:04:45.652Z,10.90
2018-11-02T13:07:13.241Z,10.90
2018-11-02T13:09:41.020Z,10.90
2018-11-02T13:12:10.290Z,10.90
2018-11-02T13:14:37.872Z,10.90
2018-11-02T13:17:05.452Z,10.90
2018-11-02T13:19:33.064Z,10.90
2018-11-02T13:22:00.829Z,10.90
2018-11-02T13:24:28.322Z,10.90
2018-11-02T13:26:55.899Z,10.90
2018-11-02T13:29:23.472Z,10.90
2018-11-02T13:31:51.105Z,10.90
2018-11-02T13:34:18.616Z,10.90
2018-11-02T13:36:46.724Z,10.90
2018-11-02T13:39:14.099Z,10.90
2018-11-02T13:41:42.265Z,10.90
2018-11-02T13:44:09.832Z,10.90
2018-11-02T13:46:38.016Z,10.90
2018-11-02T13:49:06.483Z,10.90
2018-11-02T13:51:34.040Z,10.90
2018-11-02T13:54:01.622Z,10.90
2018-11-02T13:56:29.250Z,10.90
2018-11-02T13:58:57.023Z,11.00
2018-11-02T14:01:25.060Z,11.10
2018-11-02T14:03:52.604Z,11.00
2018-11-02T14:06:20.197Z,11.00
2018-11-02T14:08:47.815Z,11.00
2018-11-02T14:11:15.443Z,10.90
2018-11-02T14:13:43.077Z,10.90
2018-11-02T14:16:10.631Z,11.00
2018-11-02T14:18:38.369Z,10.90
2018-11-02T14:21:05.769Z,10.90
2018-11-02T14:23:33.376Z,10.90
2018-11-02T14:26:00.932Z,10.90
2018-11-02T14:28:28.591Z,10.90
2018-11-02T14:30:56.187Z,10.90
2018-11-02T14:33:23.827Z,10.90
2018-11-02T14:35:51.466Z,10.90
2018-11-02T14:38:19.112Z,10.80
2018-11-02T14:40:46.660Z,10.90
2018-11-02T14:43:14.221Z,10.80
2018-11-02T14:45:41.828Z,10.80
2018-11-02T14:48:09.456Z,10.80
2018-11-02T14:50:37.025Z,10.90
2018-11-02T14:53:04.684Z,10.80
2018-11-02T14:55:32.221Z,10.80
2018-11-02T14:57:59.806Z,10.80
2018-11-02T15:00:27.362Z,10.80
2018-11-02T15:02:54.861Z,10.80
2018-11-02T15:05:22.349Z,10.80
2018-11-02T15:07:49.897Z,10.70
2018-11-02T15:10:17.453Z,10.70
2018-11-02T15:12:45.025Z,10.70
2018-11-02T15:15:12.565Z,10.70
2018-11-02T15:17:40.244Z,10.70
2018-11-02T15:20:09.901Z,10.70
2018-11-02T15:22:37.607Z,10.60
2018-11-02T15:25:05.610Z,10.60
2018-11-02T15:27:33.193Z,10.60
2018-11-02T15:30:00.824Z,10.60
2018-11-02T15:32:28.375Z,10.60
2018-11-02T15:34:56.014Z,10.60
2018-11-02T15:37:24.100Z,10.60
2018-11-02T15:39:51.728Z,10.60
2018-11-02T15:42:19.976Z,10.60
2018-11-02T15:44:47.679Z,10.50
2018-11-02T15:47:15.307Z,10.50
2018-11-02T15:49:43.100Z,10.50
2018-11-02T15:52:10.830Z,10.50
2018-11-02T15:54:38.457Z,10.50
2018-11-02T15:57:06.071Z,10.50
2018-11-02T15:59:33.734Z,10.50
2018-11-02T16:02:01.293Z,10.40
2018-11-02T16:04:29.051Z,10.40
2018-11-02T16:06:56.752Z,10.40
2018-11-02T16:09:27.130Z,10.40
2018-11-02T16:11:54.872Z,10.40
2018-11-02T16:14:22.594Z,10.40
2018-11-02T16:16:50.139Z,10.30
2018-11-02T16:19:17.926Z,10.30
2018-11-02T16:21:45.484Z,10.30
2018-11-02T16:24:13.113Z,10.30
2018-11-02T16:26:40.800Z,10.20
2018-11-02T16:29:08.450Z,10.20
2018-11-02T16:31:36.098Z,10.20
2018-11-02T16:34:03.947Z,10.20
2018-11-02T16:36:31.485Z,10.10
2018-11-02T16:38:59.120Z,10.10
2018-11-02T16:41:26.794Z,10.10
2018-11-02T16:43:54.430Z,10.10
2018-11-02T16:46:21.920Z,10.10
2018-11-02T16:48:49.512Z,10.10
2018-11-02T16:51:17.182Z,10.00
2018-11-02T16:53:44.823Z,10.00
2018-11-02T16:56:12.469Z,9.90
2018-11-02T16:58:40.083Z,9.90
2018-11-02T17:01:07.699Z,9.90
2018-11-02T17:03:35.283Z,9.90
2018-11-02T17:06:03.001Z,9.80
2018-11-02T17:08:30.568Z,9.80
2018-11-02T17:10:58.189Z,9.70
2018-11-02T17:13:25.792Z,9.70
2018-11-02T17:15:53.671Z,9.70
2018-11-02T17:18:21.417Z,9.70
2018-11-02T17:20:49.051Z,9.70
2018-11-02T17:23:16.747Z,9.70
2018-11-02T17:25:44.854Z,9.70
2018-11-02T17:28:12.907Z,9.70
2018-11-02T17:30:40.526Z,9.70
2018-11-02T17:33:08.098Z,9.60
2018-11-02T17:35:35.679Z,9.60
2018-11-02T17:38:03.313Z,9.60
2018-11-02T17:40:30.913Z,9.60
2018-11-02T17:42:58.624Z,9.70
2018-11-02T17:45:26.216Z,9.60
2018-11-02T17:47:53.829Z,9.60
2018-11-02T17:50:21.338Z,9.60
2018-11-02T17:52:48.996Z,9.60
2018-11-02T17:55:16.560Z,9.60
2018-11-02T17:57:44.889Z,9.60
2018-11-02T18:00:13.342Z,9.50
2018-11-02T18:02:41.108Z,9.60
2018-11-02T18:05:09.499Z,9.50
2018-11-02T18:07:37.177Z,9.50
2018-11-02T18:10:06.823Z,9.50
2018-11-02T18:12:34.405Z,9.50
2018-11-02T18:15:01.951Z,9.50
2018-11-02T18:17:29.508Z,9.50
2018-11-02T18:19:57.116Z,9.50
2018-11-02T18:22:24.779Z,9.50
2018-11-02T18:24:52.400Z,9.50
2018-11-02T18:27:20.092Z,9.50
2018-11-02T18:29:47.671Z,9.50
2018-11-02T18:32:15.308Z,9.50
2018-11-02T18:34:42.998Z,9.50
2018-11-02T18:37:10.613Z,9.50
2018-11-02T18:39:38.260Z,9.50
2018-11-02T18:42:05.905Z,9.50
2018-11-02T18:44:35.151Z,9.50
2018-11-02T18:47:02.861Z,9.50
2018-11-02T18:49:30.533Z,9.50
2018-11-02T18:51:59.449Z,9.50
2018-11-02T18:54:27.084Z,9.40
2018-11-02T18:56:54.693Z,9.40
2018-11-02T18:59:24.309Z,9.40
2018-11-02T19:01:52.721Z,9.40
2018-11-02T19:04:20.344Z,9.40
2018-11-02T19:06:47.999Z,9.40
2018-11-02T19:09:15.634Z,9.40
2018-11-02T19:11:43.332Z,9.40
2018-11-02T19:14:14.210Z,9.40
2018-11-02T19:16:41.818Z,9.40
2018-11-02T19:19:09.393Z,9.30
2018-11-02T19:21:37.109Z,9.30
2018-11-02T19:24:04.672Z,9.30
2018-11-02T19:26:32.294Z,9.30
2018-11-02T19:28:59.913Z,9.20
2018-11-02T19:31:27.650Z,9.30
2018-11-02T19:33:55.241Z,9.30
2018-11-02T19:36:22.904Z,9.20
2018-11-02T19:38:50.631Z,9.20
2018-11-02T19:41:18.337Z,9.20
2018-11-02T19:43:46.110Z,9.20
2018-11-02T19:46:13.790Z,9.20
2018-11-02T19:48:41.500Z,9.20
2018-11-02T19:51:09.191Z,9.20
2018-11-02T19:53:37.146Z,9.10
2018-11-02T19:56:05.008Z,9.10
2018-11-02T19:58:32.725Z,9.10
2018-11-02T20:01:00.564Z,9.10
2018-11-02T20:03:28.153Z,9.10
2018-11-02T20:05:56.561Z,9.10
2018-11-02T20:08:24.462Z,9.10
2018-11-02T20:10:52.154Z,9.10
2018-11-02T20:13:19.798Z,9.10
2018-11-02T20:15:47.596Z,9.00
2018-11-02T20:18:15.199Z,9.10
2018-11-02T20:20:42.991Z,9.00
2018-11-02T20:23:10.674Z,9.00
2018-11-02T20:25:38.475Z,9.10
2018-11-02T20:28:06.929Z,9.10
2018-11-02T20:30:34.581Z,9.10
2018-11-02T20:33:02.242Z,9.10
2018-11-02T20:35:29.922Z,9.10
2018-11-02T20:37:57.553Z,9.10
2018-11-02T20:40:25.161Z,9.00
2018-11-02T20:42:52.814Z,9.00
2018-11-02T20:45:20.496Z,9.00
2018-11-02T20:47:49.454Z,9.00
2018-11-02T20:50:17.312Z,9.00
2018-11-02T20:52:44.997Z,8.90
2018-11-02T20:55:14.066Z,8.90
2018-11-02T20:57:42.144Z,8.90
2018-11-02T21:00:16.119Z,8.90
2018-11-02T21:02:44.255Z,8.90
2018-11-02T21:05:12.841Z,8.90
2018-11-02T21:07:40.802Z,8.90
2018-11-02T21:10:10.264Z,8.80
2018-11-02T21:12:38.021Z,8.80
2018-11-02T21:15:08.205Z,8.80
2018-11-02T21:17:35.976Z,8.80
2018-11-02T21:20:05.294Z,8.80
2018-11-02T21:22:32.876Z,8.80
2018-11-02T21:25:00.546Z,8.70
2018-11-02T21:27:28.163Z,8.70
2018-11-02T21:29:56.026Z,8.70
2018-11-02T21:32:23.589Z,8.70
2018-11-02T21:34:51.201Z,8.60
2018-11-02T21:37:18.802Z,8.60
2018-11-02T21:39:46.414Z,8.60
2018-11-02T21:42:14.046Z,8.60
2018-11-02T21:44:41.670Z,8.60
2018-11-02T21:47:09.367Z,8.60
2018-11-02T21:49:37.086Z,8.60
2018-11-02T21:52:05.164Z,8.60
2018-11-02T21:54:32.818Z,8.60
2018-11-02T21:57:00.333Z,8.60
2018-11-02T21:59:28.011Z,8.60
2018-11-02T22:01:56.121Z,8.60
2018-11-02T22:04:23.952Z,8.60
2018-11-02T22:06:51.584Z,8.60
2018-11-02T22:09:19.290Z,8.60
2018-11-02T22:11:46.880Z,8.60
2018-11-02T22:14:14.584Z,8.60
2018-11-02T22:16:42.222Z,8.60
2018-11-02T22:19:09.749Z,8.60
2018-11-02T22:21:37.433Z,8.60
2018-11-02T22:24:05.096Z,8.60
2018-11-02T22:26:32.766Z,8.70
2018-11-02T22:29:00.496Z,8.70
2018-11-02T22:31:28.109Z,8.70
2018-11-02T22:33:55.682Z,8.70
2018-11-02T22:36:23.287Z,8.70
2018-11-02T22:38:51.028Z,8.70
2018-11-02T22:41:18.639Z,8.70
2018-11-02T22:43:46.264Z,8.70
2018-11-02T22:46:13.844Z,8.70
2018-11-02T22:48:41.523Z,8.70
2018-11-02T22:51:09.126Z,8.80
2018-11-02T22:53:36.876Z,8.80
2018-11-02T22:56:11.249Z,8.80
2018-11-02T22:58:38.843Z,8.80
2018-11-02T23:01:12.183Z,8.80
2018-11-02T23:03:39.890Z,8.80
2018-11-02T23:06:07.569Z,8.80
2018-11-02T23:08:35.219Z,8.80
2018-11-02T23:11:02.823Z,8.80
2018-11-02T23:13:30.491Z,8.80
2018-11-02T23:15:58.127Z,8.80
2018-11-02T23:18:25.805Z,8.80
2018-11-02T23:20:53.410Z,8.80
2018-11-02T23:23:21.074Z,8.80
2018-11-02T23:25:48.747Z,8.80
2018-11-02T23:28:16.395Z,8.80
2018-11-02T23:30:44.094Z,8.80
2018-11-02T23:33:12.325Z,8.90
2018-11-02T23:35:39.990Z,8.80
2018-11-02T23:38:07.648Z,8.90
2018-11-02T23:40:35.280Z,8.90
2018-11-02T23:43:02.895Z,8.80
2018-11-02T23:45:30.554Z,8.80
2018-11-02T23:48:03.973Z,8.80
2018-11-02T23:50:31.569Z,8.80
2018-11-02T23:52:59.108Z,8.80
2018-11-02T23:55:26.780Z,8.80
2018-11-02T23:57:54.418Z,8.80
